Round Top, New York
Current Conditions -  °F | °C
As of 1:51 PM on Tuesday 21 Oct 2014 (Local Time) from KALB Reporting Station
Broken Clouds Broken Clouds  
Wind Chill: 54°   Ceiling: 6000
Heat Index: 54°   Visibility: 10mi
Dew Point: 49°   Wind: 0mph
Humidity: 83%   Direction: NA
Pressure: 29.91"   Gusts: NA
Location:  42.27°N, 74.03°W
Report Text: KALB 211751Z 00000KT 10SM SCT009 BKN060 BKN090 12/09 A2991 RMK AO2 RAE10 SLP128 P0001 60016 T01220094 10122 20094 58013
Loading
Personal Weather Stations






























Interactive Weather Map
Tropical Storm Tracking
New forecast layout! Learn more

10-Day Weather Forecast

Advertisements
Track Severe Weather on mobile